• Join FlightAware (Why Join?)
  • Login
  • US Flag 
06:22PM EST


 

Airport Tracker/Info


-or-


 

Live Flight TrackerFlight Track Log ✈ N19MN ✈ 18-Feb-2014 ✈ KCPS - KTVR

Flight Track Log - Related Links

Times and Time Zones

All times are in EST time to prevent confusion due to time zone crossing. See the N19MN flight status page for this flight to view local times or setup timezone preferences in your user account.

Time Position Orientation Groundspeed Altitude Reporting Facility
EST Latitude Longitude Course Direction KTS MPH feet Rate Location/Type
03:01PM 38.5833 -90.1833 110° East 123 142 900  Level Gateway (St. Louis) TRACON
03:08PM 38.5500 -90.0667 90° East 89 102 2,500 240 Climbing Gateway (St. Louis) TRACON
03:10PM 38.2384 -90.2165 185° South  Level Estimated
03:10PM 38.5167 -90.0833 201° Southwest 65 75 3,200  Level Gateway (St. Louis) TRACON
03:11PM 38.1989 -90.2165 180° South  Level FlightAware Approximate
03:11PM 38.5000 -90.0833 180° South 69 79 3,800  Level Gateway (St. Louis) TRACON
03:11PM 38.4894 -90.0808 169° South 67 77 4,200 600 Climbing Kansas City Center
03:12PM 38.1594 -90.2166 180° South  Level FlightAware Approximate
03:12PM 38.4717 -90.0850 190° South 64 74 4,900  Level Kansas City Center
03:13PM 38.1199 -90.2166 180° South  Level FlightAware Approximate
03:13PM 38.4492 -90.0892 188° South 78 90 5,200  Level Kansas City Center
03:14PM 38.4186 -90.0947 188° South 100 115 5,600 360 Climbing Kansas City Center
03:15PM 38.3878 -90.1011 189° South 109 125 6,000 180 Climbing Kansas City Center
03:16PM 38.3497 -90.1078 188° South 130 150 6,000  Level Kansas City Center
03:18PM 38.3139 -90.1133 187° South 131 151 6,000  Level Kansas City Center
03:19PM 38.2767 -90.1192 187° South 127 146 6,000  Level Kansas City Center
03:20PM 38.2386 -90.1264 188° South 135 155 6,000  Level Kansas City Center
03:21PM 38.1992 -90.1328 187° South 142 163 6,000  Level Kansas City Center
03:22PM 38.1600 -90.1383 186° South 135 155 6,000  Level Kansas City Center
03:23PM 38.1239 -90.1447 188° South 130 150 6,100  Climbing Kansas City Center
03:24PM 38.0831 -90.1522 188° South 136 157 6,100  Level Kansas City Center
03:25PM 38.0442 -90.1589 188° South 140 161 6,100  Level Kansas City Center
03:26PM 38.0044 -90.1692 192° South 137 158 6,100  Level Kansas City Center
03:27PM 37.9667 -90.1769 189° South 137 158 6,100  Level Kansas City Center
03:28PM 37.9283 -90.1842 188° South 139 160 6,100  Level Kansas City Center
03:29PM 37.8886 -90.1903 187° South 135 155 6,100  Level Kansas City Center
03:30PM 37.8542 -90.1964 188° South 133 153 6,100  Level Kansas City Center
03:31PM 37.8175 -90.2011 186° South 133 153 6,100  Level Kansas City Center
03:32PM 37.7786 -90.2039 183° South 136 157 6,100  Level Kansas City Center
03:33PM 37.7303 -90.2069 183° South 141 162 6,100  Level Kansas City Center
03:34PM 37.6911 -90.2142 188° South 142 163 6,100  Level Kansas City Center
03:35PM 37.6567 -90.2222 190° South 134 154 6,100  Level Kansas City Center
03:36PM 37.6211 -90.2350 196° South 131 151 6,100  Level Kansas City Center
03:37PM 37.5856 -90.2472 195° South 132 152 6,100  Level Kansas City Center
03:38PM 37.5522 -90.2522 187° South 128 147 6,100  Level Kansas City Center
03:39PM 37.5064 -90.2603 188° South 132 152 6,100  Level Kansas City Center
03:40PM 37.4686 -90.2653 186° South 135 155 6,100  Level Kansas City Center
03:41PM 37.4333 -90.2714 188° South 133 153 6,100  Level Kansas City Center
03:42PM 37.3967 -90.2781 188° South 132 152 6,100  Level Kansas City Center
03:43PM 37.3600 -90.2853 189° South 133 153 6,100  Level Kansas City Center
03:44PM 37.3231 -90.2906 186° South 133 153 6,100 -60 Level Kansas City Center
03:45PM 37.2794 -90.2981 188° South 132 152 6,000  Descending Kansas City Center
03:46PM 37.2414 -90.3033 186° South 134 154 6,100  Climbing Kansas City Center
03:48PM 37.2053 -90.3083 186° South 133 153 6,100  Level Kansas City Center
03:49PM 37.1669 -90.3153 188° South 134 154 6,100  Level Kansas City Center
03:50PM 37.1317 -90.3208 187° South 133 153 6,100  Level Kansas City Center
03:51PM 37.0933 -90.3283 189° South 135 155 6,100  Level Kansas City Center
03:52PM 37.0478 -90.3350 187° South 136 157 6,100  Level Kansas City Center
03:53PM 37.0094 -90.3417 188° South 137 158 6,100  Level Kansas City Center
03:54PM 36.9731 -90.3475 187° South 136 157 6,100  Level Kansas City Center
03:55PM 36.9356 -90.3542 188° South 135 155 6,100  Level Kansas City Center
03:56PM 36.8972 -90.3603 187° South 136 157 6,100  Level Kansas City Center
03:57PM 36.8578 -90.3658 186° South 137 158 6,200  Climbing Memphis Center
03:58PM 36.8192 -90.3728 188° South 139 160 6,200  Level Memphis Center
03:59PM 36.7725 -90.3800 187° South 140 161 6,200  Level Memphis Center
04:00PM 36.7342 -90.3861 187° South 139 160 6,200  Level Memphis Center
04:01PM 36.6944 -90.3931 188° South 141 162 6,200 -60 Level Memphis Center
04:02PM 36.6558 -90.4000 188° South 141 162 6,100 -60 Descending Memphis Center
04:03PM 36.6158 -90.4072 188° South 142 163 6,100  Level Memphis Center
04:04PM 36.5706 -90.4142 187° South 140 161 6,100  Level Memphis Center
04:05PM 36.5317 -90.4200 187° South 140 161 6,100  Level Memphis Center
04:06PM 36.4947 -90.4261 188° South 139 160 6,100  Level Memphis Center
04:07PM 36.4558 -90.4322 187° South 138 159 6,100  Level Memphis Center
04:08PM 36.4178 -90.4378 187° South 139 160 6,100  Level Memphis Center
04:09PM 36.3794 -90.4442 188° South 139 160 6,100  Level Memphis Center
04:10PM 36.3336 -90.4525 188° South 139 160 6,100  Level Memphis Center
04:11PM 36.2967 -90.4581 187° South 137 158 6,100  Level Memphis Center
04:12PM 36.2586 -90.4639 187° South 137 158 6,100  Level Memphis Center
04:13PM 36.2208 -90.4703 188° South 137 158 6,100  Level Memphis Center
04:14PM 36.1850 -90.4761 187° South 134 154 6,100  Level Memphis Center
04:15PM 36.1481 -90.4814 187° South 134 154 6,100  Level Memphis Center
04:16PM 36.1017 -90.4889 187° South 136 157 6,100  Level Memphis Center
04:18PM 36.0658 -90.4950 188° South 135 155 6,100  Level Memphis Center
04:19PM 36.0272 -90.5017 188° South 136 157 6,100  Level Memphis Center
04:20PM 35.9903 -90.5069 187° South 135 155 6,100  Level Memphis Center
04:21PM 35.9525 -90.5128 187° South 136 157 6,100  Level Memphis Center
04:22PM 35.9161 -90.5181 187° South 135 155 6,100  Level Memphis Center
04:23PM 35.8731 -90.5242 187° South 131 151 6,100  Level Memphis Center
04:24PM 35.8356 -90.5311 189° South 133 153 6,100  Level Memphis Center
04:25PM 35.7978 -90.5367 187° South 135 155 6,100  Level Memphis Center
04:26PM 35.7603 -90.5425 187° South 135 155 6,100  Level Memphis Center
04:27PM 35.7233 -90.5475 186° South 135 155 6,100  Level Memphis Center
04:28PM 35.6869 -90.5522 186° South 133 153 6,100  Level Memphis Center
04:29PM 35.6436 -90.5589 187° South 132 152 6,100 -60 Level Memphis Center
04:30PM 35.6058 -90.5653 188° South 133 153 6,000  Descending Memphis Center
04:31PM 35.5694 -90.5722 189° South 134 154 6,100  Climbing Memphis Center
04:32PM 35.5325 -90.5764 185° South 133 153 6,100 -60 Level Memphis Center
04:33PM 35.4969 -90.5825 188° South 131 151 6,000  Descending Memphis Center
04:34PM 35.4611 -90.5875 186° South 130 150 6,100  Climbing Memphis Center
04:35PM 35.4178 -90.5944 187° South 130 150 6,100  Level Memphis Center
04:36PM 35.3814 -90.6006 188° South 130 150 6,100  Level Memphis Center
04:37PM 35.3469 -90.6069 189° South 129 148 6,100  Level Memphis Center
04:38PM 35.3097 -90.6131 188° South 130 150 6,100  Level Memphis Center
04:39PM 35.2736 -90.6189 188° South 131 151 6,100  Level Memphis Center
04:40PM 35.2375 -90.6233 186° South 130 150 6,100  Level Memphis Center
04:41PM 35.2003 -90.6297 188° South 129 148 6,100 -60 Level Memphis Center
04:42PM 35.1592 -90.6383 190° South 131 151 6,000  Descending Memphis Center
04:43PM 35.1225 -90.6447 188° South 132 152 6,100  Climbing Memphis Center
04:44PM 35.0853 -90.6494 186° South 133 153 6,100  Level Memphis Center
04:45PM 35.0503 -90.6547 187° South 130 150 6,100  Level Memphis Center
04:46PM 35.0153 -90.6603 187° South 128 147 6,100  Level Memphis Center
04:47PM 34.9722 -90.6689 189° South 130 150 6,100 -60 Level Memphis Center
04:49PM 34.9292 -90.6722 184° South 134 154 6,000 -60 Descending Memphis Center
05:00PM 34.4986 -90.7403 188° South 146 168 6,000  Level Memphis Center
05:01PM 34.5071 -90.7031 188° South  Level FlightAware Approximate
05:01PM 34.4522 -90.7506 190° South 144 166 6,100  Level Memphis Center
05:02PM 34.4722 -90.7087 188° South  Level FlightAware Approximate
05:02PM 34.4142 -90.7575 189° South 143 165 6,100  Level Memphis Center
05:03PM 34.4373 -90.7143 188° South  Level FlightAware Approximate
05:03PM 34.3778 -90.7594 183° South 138 159 6,100  Level Memphis Center
05:04PM 34.4023 -90.7199 188° South  Level FlightAware Approximate
05:04PM 34.3386 -90.7669 189° South 139 160 6,100  Level Memphis Center
05:05PM 34.3674 -90.7255 188° South  Level FlightAware Approximate
05:05PM 34.3006 -90.7714 186° South 139 160 6,200  Level Memphis Center
05:06PM 34.2531 -90.7794 188° South 141 162 6,100 -60 Descending Memphis Center
05:07PM 34.2144 -90.7831 184° South 142 163 6,100  Level Memphis Center
05:08PM 34.1772 -90.7881 186° South 139 160 6,100  Level Memphis Center
05:09PM 34.1389 -90.7939 187° South 139 160 6,200  Climbing Memphis Center
05:10PM 34.0994 -90.8000 187° South 140 161 6,200 -60 Level Memphis Center
05:11PM 34.0525 -90.8069 187° South 141 162 6,100  Descending Memphis Center
05:13PM 34.0136 -90.8128 187° South 142 163 6,200  Climbing Memphis Center
05:14PM 33.9761 -90.8172 186° South 140 161 6,200  Level Memphis Center
05:15PM 33.9372 -90.8250 189° South 140 161 6,200 -60 Level Memphis Center
05:16PM 33.8994 -90.8303 187° South 139 160 6,100 -60 Descending Memphis Center
05:17PM 33.8533 -90.8389 189° South 140 161 6,100  Level Memphis Center
05:18PM 33.8142 -90.8447 187° South 141 162 6,100  Level Memphis Center
05:19PM 33.7731 -90.8514 188° South 145 167 6,100  Level Memphis Center
05:20PM 33.7319 -90.8572 187° South 147 169 6,100  Level Memphis Center
05:21PM 33.6919 -90.8633 187° South 147 169 6,200  Climbing Memphis Center
05:22PM 33.6450 -90.8706 187° South 145 167 6,100 -60 Descending Memphis Center
05:23PM 33.6050 -90.8764 187° South 145 167 6,100  Level Memphis Center
05:24PM 33.5667 -90.8806 185° South 143 165 6,100  Level Memphis Center
05:25PM 33.5269 -90.8869 188° South 143 165 6,200  Climbing Memphis Center
05:26PM 33.4883 -90.8928 187° South 142 163 6,100  Descending Memphis Center
05:27PM 33.4414 -90.8986 186° South 142 163 6,200  Climbing Memphis Center
05:28PM 33.4031 -90.9056 189° South 141 162 6,100 -60 Descending Memphis Center
05:29PM 33.3658 -90.9136 190° South 140 161 6,100  Level Memphis Center
05:30PM 33.3278 -90.9194 187° South 139 160 6,200  Climbing Memphis Center
05:31PM 33.2900 -90.9247 187° South 138 159 6,100 -60 Descending Memphis Center
05:32PM 33.2439 -90.9303 186° South 139 160 6,100  Level Memphis Center
05:33PM 33.2056 -90.9361 187° South 139 160 6,100  Level Memphis Center
05:34PM 33.1675 -90.9419 187° South 139 160 6,200  Climbing Memphis Center
05:35PM 33.1289 -90.9461 185° South 139 160 6,200  Level Memphis Center
05:36PM 33.0903 -90.9517 187° South 140 161 6,200  Level Memphis Center
05:37PM 33.0436 -90.9592 188° South 141 162 6,200 -60 Level Memphis Center
05:38PM 33.0053 -90.9656 188° South 140 161 6,100 -180 Descending Memphis Center
05:39PM 32.9661 -90.9717 187° South 141 162 5,900 -360 Descending Memphis Center
05:40PM 32.9250 -90.9783 188° South 144 166 5,400 -480 Descending Memphis Center
05:41PM 32.8822 -90.9856 188° South 149 171 4,900 -540 Descending Memphis Center
05:43PM 32.8314 -90.9950 189° South 153 176 4,400 -480 Descending Memphis Center
05:44PM 32.7903 -90.9969 182° South 151 174 4,000 -420 Descending Memphis Center
05:45PM 32.7489 -90.9983 182° South 150 173 3,600 -360 Descending Memphis Center
05:46PM 32.7108 -91.0011 184° South 146 168 3,300 -300 Descending Memphis Center
05:47PM 32.6722 -91.0047 185° South 143 165 3,100 -120 Descending Memphis Center
05:48PM 32.6286 -91.0072 183° South 138 159 3,100  Level Memphis Center
05:49PM 32.5950 -91.0108 185° South 131 151 3,100 -120 Level Memphis Center
05:50PM 32.5611 -91.0136 184° South 126 145 2,900 -240 Descending Memphis Center